createdAt,value
2017-10-15T00:01:30.646Z,101348.31
2017-10-15T00:04:05.874Z,101347.05
2017-10-15T00:06:42.523Z,101354.32
2017-10-15T00:09:18.421Z,101350.95
2017-10-15T00:11:53.315Z,101351.83
2017-10-15T00:14:30.445Z,101347.94
2017-10-15T00:17:04.924Z,101351.77
2017-10-15T00:19:41.428Z,101346.61
2017-10-15T00:22:16.712Z,101343.19
2017-10-15T00:24:51.598Z,101353.93
2017-10-15T00:27:26.798Z,101354.38
2017-10-15T00:30:02.282Z,101357.38
2017-10-15T00:32:37.574Z,101356.08
2017-10-15T00:35:13.171Z,101348.03
2017-10-15T00:37:47.611Z,101348.45
2017-10-15T00:40:23.038Z,101352.30
2017-10-15T00:42:58.503Z,101355.72
2017-10-15T00:45:33.958Z,101354.86
2017-10-15T00:48:09.314Z,101356.59
2017-10-15T00:50:44.000Z,101356.61
2017-10-15T00:53:19.617Z,101368.60
2017-10-15T00:55:57.545Z,101369.05
2017-10-15T00:58:33.016Z,101369.97
2017-10-15T01:01:07.582Z,101364.03
2017-10-15T01:03:42.316Z,101364.45
2017-10-15T01:06:17.176Z,101371.31
2017-10-15T01:08:52.575Z,101367.95
2017-10-15T01:11:28.186Z,101376.52
2017-10-15T01:14:02.865Z,101377.79
2017-10-15T01:16:39.459Z,101387.21
2017-10-15T01:19:14.066Z,101384.28
2017-10-15T01:21:52.011Z,101387.28
2017-10-15T01:24:26.862Z,101385.61
2017-10-15T01:27:02.031Z,101381.76
2017-10-15T01:29:36.923Z,101380.91
2017-10-15T01:32:14.085Z,101380.94
2017-10-15T01:34:49.434Z,101380.59
2017-10-15T01:37:24.313Z,101376.75
2017-10-15T01:39:59.692Z,101384.05
2017-10-15T01:42:34.726Z,101393.81
2017-10-15T01:45:10.174Z,101398.96
2017-10-15T01:47:46.019Z,101397.34
2017-10-15T01:50:20.959Z,101399.46
2017-10-15T01:52:55.713Z,101396.92
2017-10-15T01:55:30.434Z,101393.10
2017-10-15T01:58:05.864Z,101383.69
2017-10-15T02:00:41.266Z,101383.70
2017-10-15T02:03:16.922Z,101385.45
2017-10-15T02:05:52.143Z,101381.22
2017-10-15T02:08:27.644Z,101371.56
2017-10-15T02:11:02.250Z,101373.29
2017-10-15T02:13:37.810Z,101365.60
2017-10-15T02:16:12.466Z,101370.70
2017-10-15T02:18:47.825Z,101362.13
2017-10-15T02:21:22.517Z,101363.82
2017-10-15T02:23:58.253Z,101359.11
2017-10-15T02:26:32.716Z,101355.66
2017-10-15T02:29:07.802Z,101358.36
2017-10-15T02:31:43.585Z,101360.56
2017-10-15T02:34:19.790Z,101360.59
2017-10-15T02:36:54.475Z,101370.39
2017-10-15T02:39:29.191Z,101369.55
2017-10-15T02:42:04.560Z,101366.92
2017-10-15T02:44:39.205Z,101371.56
2017-10-15T02:47:13.631Z,101372.41
2017-10-15T02:49:48.308Z,101374.91
2017-10-15T02:52:22.884Z,101371.12
2017-10-15T02:54:57.774Z,101371.99
2017-10-15T02:57:33.079Z,101375.45
2017-10-15T03:00:07.999Z,101374.98
2017-10-15T03:02:43.328Z,101381.28
2017-10-15T03:05:21.222Z,101389.73
2017-10-15T03:07:56.420Z,101390.91
2017-10-15T03:10:32.702Z,101395.52
2017-10-15T03:13:07.465Z,101399.66
2017-10-15T03:15:42.382Z,101406.46
2017-10-15T03:18:16.932Z,101404.25
2017-10-15T03:20:52.934Z,101406.76
2017-10-15T03:23:27.616Z,101418.66
2017-10-15T03:26:02.169Z,101423.69
2017-10-15T03:28:36.701Z,101417.28
2017-10-15T03:31:13.701Z,101418.09
2017-10-15T03:33:48.238Z,101422.38
2017-10-15T03:36:22.843Z,101421.41
2017-10-15T03:38:57.726Z,101430.81
2017-10-15T03:41:33.195Z,101434.64
2017-10-15T03:44:07.891Z,101425.67
2017-10-15T03:46:44.077Z,101427.77
2017-10-15T03:49:19.009Z,101432.17
2017-10-15T03:51:54.422Z,101432.20
2017-10-15T03:54:29.271Z,101436.51
2017-10-15T03:57:04.618Z,101437.06
2017-10-15T03:59:39.561Z,101441.06
2017-10-15T04:02:06.330Z,101444.54
2017-10-15T04:04:41.768Z,101443.66
2017-10-15T04:07:16.700Z,101460.63
2017-10-15T04:09:51.309Z,101459.88
2017-10-15T04:12:27.539Z,101452.22
2017-10-15T04:15:02.569Z,101464.68
2017-10-15T04:17:38.979Z,101465.14
2017-10-15T04:20:13.594Z,101458.33
2017-10-15T04:22:49.866Z,101456.64
2017-10-15T04:25:24.553Z,101463.44
2017-10-15T04:28:00.261Z,101458.63
2017-10-15T04:30:35.560Z,101457.31
2017-10-15T04:33:11.057Z,101466.69
2017-10-15T04:35:45.724Z,101467.98
2017-10-15T04:38:23.686Z,101468.39
2017-10-15T04:40:58.882Z,101470.53
2017-10-15T04:43:35.991Z,101465.80
2017-10-15T04:46:10.692Z,101466.25
2017-10-15T04:48:47.190Z,101468.78
2017-10-15T04:51:21.776Z,101478.55
2017-10-15T04:53:56.367Z,101476.59
2017-10-15T04:56:31.843Z,101480.73
2017-10-15T04:59:06.371Z,101480.56
2017-10-15T05:01:40.796Z,101486.89
2017-10-15T05:04:15.392Z,101474.08
2017-10-15T05:06:50.777Z,101478.11
2017-10-15T05:09:27.857Z,101488.35
2017-10-15T05:12:02.774Z,101487.30
2017-10-15T05:14:37.377Z,101501.02
2017-10-15T05:17:13.847Z,101507.02
2017-10-15T05:19:49.165Z,101511.77
2017-10-15T05:22:23.639Z,101511.34
2017-10-15T05:24:58.160Z,101518.97
2017-10-15T05:27:33.681Z,101524.54
2017-10-15T05:30:08.171Z,101520.27
2017-10-15T05:32:43.596Z,101521.53
2017-10-15T05:35:19.145Z,101516.82
2017-10-15T05:37:53.710Z,101530.03
2017-10-15T05:40:28.275Z,101534.67
2017-10-15T05:43:02.845Z,101531.22
2017-10-15T05:45:38.470Z,101525.65
2017-10-15T05:48:13.857Z,101541.84
2017-10-15T05:50:50.897Z,101538.78
2017-10-15T05:53:25.695Z,101540.55
2017-10-15T05:56:00.324Z,101543.02
2017-10-15T05:58:37.492Z,101537.02
2017-10-15T06:01:05.252Z,101545.66
2017-10-15T06:03:40.488Z,101545.27
2017-10-15T06:06:15.604Z,101540.45
2017-10-15T06:08:51.047Z,101538.42
2017-10-15T06:11:26.658Z,101539.19
2017-10-15T06:14:02.092Z,101538.91
2017-10-15T06:16:37.380Z,101541.73
2017-10-15T06:19:12.691Z,101545.58
2017-10-15T06:21:50.192Z,101540.07
2017-10-15T06:24:25.610Z,101543.08
2017-10-15T06:27:01.281Z,101547.61
2017-10-15T06:29:36.676Z,101546.80
2017-10-15T06:32:12.100Z,101547.52
2017-10-15T06:34:46.573Z,101547.89
2017-10-15T06:37:21.262Z,101541.81
2017-10-15T06:39:56.746Z,101546.49
2017-10-15T06:42:32.482Z,101547.83
2017-10-15T06:45:07.065Z,101553.81
2017-10-15T06:47:41.701Z,101548.11
2017-10-15T06:50:18.040Z,101554.23
2017-10-15T06:52:55.942Z,101549.55
2017-10-15T06:55:30.864Z,101560.09
2017-10-15T06:58:08.549Z,101544.64
2017-10-15T07:00:43.173Z,101543.20
2017-10-15T07:03:21.390Z,101548.92
2017-10-15T07:05:56.339Z,101537.95
2017-10-15T07:08:31.839Z,101542.53
2017-10-15T07:11:07.319Z,101532.52
2017-10-15T07:13:43.001Z,101538.00
2017-10-15T07:16:18.419Z,101539.42
2017-10-15T07:18:53.953Z,101541.91
2017-10-15T07:21:29.439Z,101538.41
2017-10-15T07:24:05.792Z,101532.53
2017-10-15T07:26:40.472Z,101531.80
2017-10-15T07:29:16.452Z,101528.75
2017-10-15T07:31:50.978Z,101528.61
2017-10-15T07:34:25.753Z,101519.48
2017-10-15T07:37:01.067Z,101531.61
2017-10-15T07:39:36.928Z,101537.86
2017-10-15T07:42:12.278Z,101536.49
2017-10-15T07:44:48.531Z,101540.58
2017-10-15T07:47:23.446Z,101544.52
2017-10-15T07:49:59.203Z,101544.99
2017-10-15T07:52:34.310Z,101544.05
2017-10-15T07:55:09.093Z,101552.80
2017-10-15T07:57:44.598Z,101538.42
2017-10-15T08:00:21.774Z,101538.59
2017-10-15T08:02:48.517Z,101538.69
2017-10-15T08:05:24.205Z,101539.34
2017-10-15T08:07:58.886Z,101528.44
2017-10-15T08:10:38.528Z,101529.58
2017-10-15T08:13:13.735Z,101524.63
2017-10-15T08:15:48.258Z,101515.75
2017-10-15T08:18:22.946Z,101512.87
2017-10-15T08:20:58.373Z,101513.43
2017-10-15T08:23:33.014Z,101512.63
2017-10-15T08:26:08.560Z,101505.53
2017-10-15T08:28:43.796Z,101504.05
2017-10-15T08:31:19.340Z,101504.02
2017-10-15T08:33:54.724Z,101500.34
2017-10-15T08:36:29.300Z,101501.81
2017-10-15T08:39:04.906Z,101500.95
2017-10-15T08:41:41.128Z,101494.02
2017-10-15T08:44:15.733Z,101479.44
2017-10-15T08:46:51.109Z,101482.38
2017-10-15T08:49:25.899Z,101493.17
2017-10-15T08:52:01.097Z,101493.75
2017-10-15T08:54:36.457Z,101495.02
2017-10-15T08:57:11.246Z,101491.96
2017-10-15T08:59:46.706Z,101496.59
2017-10-15T09:02:24.566Z,101493.58
2017-10-15T09:04:59.580Z,101495.37
2017-10-15T09:07:35.902Z,101496.14
2017-10-15T09:10:11.053Z,101495.94
2017-10-15T09:12:45.870Z,101493.80
2017-10-15T09:15:21.106Z,101501.30
2017-10-15T09:18:00.027Z,101504.06
2017-10-15T09:20:35.138Z,101507.13
2017-10-15T09:23:10.673Z,101507.66
2017-10-15T09:25:45.946Z,101508.01
2017-10-15T09:28:20.640Z,101517.55
2017-10-15T09:30:56.142Z,101514.33
2017-10-15T09:33:30.807Z,101507.95
2017-10-15T09:36:06.218Z,101495.70
2017-10-15T09:38:41.095Z,101494.19
2017-10-15T09:41:16.536Z,101496.22
2017-10-15T09:43:51.244Z,101484.61
2017-10-15T09:46:28.873Z,101488.59
2017-10-15T09:49:04.325Z,101483.63
2017-10-15T09:51:39.032Z,101481.80
2017-10-15T09:54:14.623Z,101482.48
2017-10-15T09:56:49.265Z,101481.83
2017-10-15T09:59:24.990Z,101483.84
2017-10-15T10:05:04.868Z,101473.30
2017-10-15T10:07:39.573Z,101473.48
2017-10-15T10:10:17.184Z,101467.40
2017-10-15T10:12:52.465Z,101468.66
2017-10-15T10:15:27.232Z,101456.56
2017-10-15T10:18:01.687Z,101453.16
2017-10-15T10:20:38.223Z,101449.15
2017-10-15T10:23:12.886Z,101443.47
2017-10-15T10:25:49.629Z,101431.73
2017-10-15T10:28:24.578Z,101430.64
2017-10-15T10:30:59.971Z,101421.98
2017-10-15T10:33:34.770Z,101413.03
2017-10-15T10:36:09.330Z,101409.89
2017-10-15T10:38:44.034Z,101396.80
2017-10-15T10:41:21.062Z,101383.95
2017-10-15T10:43:55.885Z,101380.73
2017-10-15T10:46:32.112Z,101370.27
2017-10-15T10:49:06.772Z,101367.27
2017-10-15T10:51:41.348Z,101369.05
2017-10-15T10:54:15.959Z,101361.95
2017-10-15T10:56:52.610Z,101357.69
2017-10-15T10:59:33.521Z,101361.64
2017-10-15T11:02:08.266Z,101357.65
2017-10-15T11:04:42.816Z,101354.95
2017-10-15T11:07:17.450Z,101363.14
2017-10-15T11:09:52.067Z,101355.84
2017-10-15T11:12:28.005Z,101354.44
2017-10-15T11:15:03.221Z,101347.23
2017-10-15T11:17:39.546Z,101341.30
2017-10-15T11:20:15.055Z,101341.52
2017-10-15T11:22:50.347Z,101333.87
2017-10-15T11:25:25.229Z,101324.08
2017-10-15T11:27:59.793Z,101331.45
2017-10-15T11:30:34.559Z,101343.58
2017-10-15T11:33:09.138Z,101335.80
2017-10-15T11:35:43.619Z,101332.36
2017-10-15T11:38:19.137Z,101333.09
2017-10-15T11:40:53.887Z,101339.17
2017-10-15T11:43:29.402Z,101341.41
2017-10-15T11:46:03.855Z,101333.23
2017-10-15T11:48:39.425Z,101334.73
2017-10-15T11:51:14.857Z,101325.01
2017-10-15T11:53:51.369Z,101325.91
2017-10-15T11:56:25.942Z,101330.41
2017-10-15T11:59:01.400Z,101323.30
2017-10-15T12:01:28.144Z,101323.60
2017-10-15T12:04:03.506Z,101319.64
2017-10-15T12:06:38.125Z,101311.95
2017-10-15T12:09:16.027Z,101323.76
2017-10-15T12:11:50.669Z,101327.39
2017-10-15T12:14:26.201Z,101324.79
2017-10-15T12:17:03.452Z,101314.27
2017-10-15T12:19:38.469Z,101310.64
2017-10-15T12:22:13.715Z,101309.86
2017-10-15T12:24:48.314Z,101308.52
2017-10-15T12:27:22.863Z,101309.67
2017-10-15T12:29:58.986Z,101302.35
2017-10-15T12:32:33.889Z,101303.66
2017-10-15T12:35:08.647Z,101301.31
2017-10-15T12:37:44.128Z,101297.88
2017-10-15T12:40:19.535Z,101296.62
2017-10-15T12:42:54.033Z,101292.85
2017-10-15T12:45:28.762Z,101291.02
2017-10-15T12:48:04.007Z,101297.83
2017-10-15T12:50:41.318Z,101299.36
2017-10-15T12:53:15.888Z,101298.28
2017-10-15T12:55:51.383Z,101297.73
2017-10-15T12:58:26.893Z,101308.08
2017-10-15T13:01:04.739Z,101302.95
2017-10-15T13:03:39.805Z,101304.05
2017-10-15T13:06:14.504Z,101308.55
2017-10-15T13:08:49.975Z,101318.26
2017-10-15T13:11:25.321Z,101302.61
2017-10-15T13:14:00.760Z,101300.49
2017-10-15T13:16:36.305Z,101298.03
2017-10-15T13:19:12.739Z,101300.17
2017-10-15T13:21:49.929Z,101304.21
2017-10-15T13:24:24.600Z,101296.10
2017-10-15T13:26:59.374Z,101304.14
2017-10-15T13:29:34.769Z,101305.86
2017-10-15T13:32:14.370Z,101298.88
2017-10-15T13:34:50.614Z,101296.77
2017-10-15T13:37:26.152Z,101282.91
2017-10-15T13:40:00.746Z,101276.77
2017-10-15T13:42:37.874Z,101282.07
2017-10-15T13:45:12.682Z,101273.72
2017-10-15T13:47:47.192Z,101255.66
2017-10-15T13:50:21.736Z,101260.57
2017-10-15T13:52:57.133Z,101258.70
2017-10-15T13:55:31.739Z,101264.37
2017-10-15T13:58:07.375Z,101265.80
2017-10-15T14:00:42.847Z,101270.21
2017-10-15T14:03:11.412Z,101268.02
2017-10-15T14:05:46.818Z,101252.27
2017-10-15T14:08:22.458Z,101247.61
2017-10-15T14:10:57.691Z,101251.02
2017-10-15T14:13:32.367Z,101268.45
2017-10-15T14:16:07.598Z,101267.22
2017-10-15T14:18:48.881Z,101271.50
2017-10-15T14:21:23.755Z,101277.63
2017-10-15T14:23:59.290Z,101270.59
2017-10-15T14:26:34.589Z,101275.89
2017-10-15T14:29:09.226Z,101274.30
2017-10-15T14:31:44.667Z,101273.84
2017-10-15T14:34:20.170Z,101274.18
2017-10-15T14:36:55.533Z,101273.22
2017-10-15T14:39:34.325Z,101271.06
2017-10-15T14:42:09.509Z,101276.78
2017-10-15T14:44:46.513Z,101288.79
2017-10-15T14:47:21.644Z,101295.33
2017-10-15T14:49:57.011Z,101294.17
2017-10-15T14:52:31.754Z,101293.91
2017-10-15T14:55:10.632Z,101298.38
2017-10-15T14:57:45.763Z,101298.55
2017-10-15T15:00:21.295Z,101290.03
2017-10-15T15:02:56.677Z,101293.50
2017-10-15T15:05:31.439Z,101285.00
2017-10-15T15:08:05.958Z,101282.25
2017-10-15T15:10:41.616Z,101280.95
2017-10-15T15:13:16.686Z,101284.19
2017-10-15T15:15:51.364Z,101288.09
2017-10-15T15:18:25.818Z,101288.27
2017-10-15T15:21:02.437Z,101288.91
2017-10-15T15:23:36.938Z,101290.62
2017-10-15T15:26:13.342Z,101291.82
2017-10-15T15:28:47.907Z,101291.05
2017-10-15T15:31:23.366Z,101287.50
2017-10-15T15:33:58.834Z,101287.60
2017-10-15T15:36:33.546Z,101287.80
2017-10-15T15:39:08.784Z,101283.47
2017-10-15T15:41:44.259Z,101294.94
2017-10-15T15:44:18.922Z,101297.13
2017-10-15T15:46:54.333Z,101294.55
2017-10-15T15:49:29.737Z,101293.48
2017-10-15T15:52:05.190Z,101298.20
2017-10-15T15:54:40.415Z,101302.64
2017-10-15T15:57:17.723Z,101304.89
2017-10-15T15:59:52.345Z,101308.81
2017-10-15T16:02:19.143Z,101308.08
2017-10-15T16:04:54.102Z,101307.41
2017-10-15T16:07:28.692Z,101313.50
2017-10-15T16:10:04.297Z,101310.56
2017-10-15T16:12:44.422Z,101309.22
2017-10-15T16:15:19.240Z,101315.31
2017-10-15T16:17:59.142Z,101311.00
2017-10-15T16:20:35.286Z,101314.94
2017-10-15T16:23:12.882Z,101310.46
2017-10-15T16:25:47.785Z,101317.64
2017-10-15T16:28:24.177Z,101314.66
2017-10-15T16:30:58.910Z,101318.63
2017-10-15T16:33:37.931Z,101320.20
2017-10-15T16:36:13.859Z,101314.82
2017-10-15T16:38:48.579Z,101315.36
2017-10-15T16:41:23.902Z,101311.95
2017-10-15T16:43:59.677Z,101312.85
2017-10-15T16:46:35.004Z,101306.59
2017-10-15T16:49:12.234Z,101291.81
2017-10-15T16:51:49.770Z,101291.08
2017-10-15T16:54:27.239Z,101298.42
2017-10-15T16:57:04.670Z,101300.91
2017-10-15T16:59:40.194Z,101303.71
2017-10-15T17:02:15.189Z,101297.52
2017-10-15T17:04:52.612Z,101299.70
2017-10-15T17:07:28.223Z,101301.46
2017-10-15T17:10:05.477Z,101290.91
2017-10-15T17:12:41.109Z,101291.19
2017-10-15T17:15:18.148Z,101291.56
2017-10-15T17:17:54.246Z,101294.00
2017-10-15T17:20:21.151Z,101301.18
2017-10-15T17:22:56.172Z,101291.95
2017-10-15T17:25:33.060Z,101304.73
2017-10-15T17:28:08.337Z,101303.51
2017-10-15T17:30:44.678Z,101294.84
2017-10-15T17:33:21.532Z,101297.92
2017-10-15T17:35:56.566Z,101300.03
2017-10-15T17:38:31.918Z,101288.52
2017-10-15T17:41:07.569Z,101291.91
2017-10-15T17:43:42.824Z,101283.17
2017-10-15T17:46:18.236Z,101279.47
2017-10-15T17:48:52.873Z,101278.17
2017-10-15T17:51:28.637Z,101287.87
2017-10-15T17:54:04.026Z,101283.91
2017-10-15T17:56:46.116Z,101276.80
2017-10-15T17:59:21.328Z,101278.20
2017-10-15T18:01:49.221Z,101280.84
2017-10-15T18:04:26.176Z,101280.57
2017-10-15T18:07:02.884Z,101286.78
2017-10-15T18:09:37.558Z,101289.18
2017-10-15T18:12:13.217Z,101293.98
2017-10-15T18:14:47.874Z,101291.47
2017-10-15T18:17:23.400Z,101297.80
2017-10-15T18:19:58.942Z,101304.69
2017-10-15T18:22:38.813Z,101302.13
2017-10-15T18:25:14.183Z,101289.34
2017-10-15T18:27:48.912Z,101302.31
2017-10-15T18:30:24.362Z,101294.39
2017-10-15T18:32:51.147Z,101279.05
2017-10-15T18:35:26.443Z,101276.09
2017-10-15T18:38:06.453Z,101286.62
2017-10-15T18:40:43.953Z,101282.28
2017-10-15T18:46:00.640Z,101285.95
2017-10-15T18:48:35.479Z,101290.22
2017-10-15T18:51:11.258Z,101296.80
2017-10-15T18:53:45.989Z,101305.75
2017-10-15T18:56:12.718Z,101319.02
2017-10-15T18:58:49.210Z,101312.92
2017-10-15T19:01:23.956Z,101316.08
2017-10-15T19:03:58.617Z,101316.59
2017-10-15T19:06:34.126Z,101328.52
2017-10-15T19:09:13.327Z,101329.86
2017-10-15T19:11:48.159Z,101335.63
2017-10-15T19:14:25.585Z,101337.03
2017-10-15T19:17:01.391Z,101342.80
2017-10-15T19:19:39.933Z,101344.34
2017-10-15T19:22:14.951Z,101342.94
2017-10-15T19:24:49.585Z,101337.97
2017-10-15T19:27:24.139Z,101339.77
2017-10-15T19:29:58.998Z,101339.92
2017-10-15T19:32:25.862Z,101349.06
2017-10-15T19:35:01.985Z,101349.64
2017-10-15T19:37:36.688Z,101341.93
2017-10-15T19:40:13.413Z,101331.77
2017-10-15T19:42:48.152Z,101327.62
2017-10-15T19:45:23.506Z,101333.63
2017-10-15T19:47:57.973Z,101330.82
2017-10-15T19:50:34.923Z,101334.13
2017-10-15T19:53:10.123Z,101329.36
2017-10-15T19:55:46.557Z,101326.55
2017-10-15T19:58:21.148Z,101337.70
2017-10-15T20:00:56.706Z,101340.48
2017-10-15T20:03:23.533Z,101333.17
2017-10-15T20:05:59.291Z,101333.55
2017-10-15T20:08:34.620Z,101339.28
2017-10-15T20:11:01.451Z,101335.94
2017-10-15T20:13:36.935Z,101335.69
2017-10-15T20:16:12.571Z,101335.05
2017-10-15T20:18:47.895Z,101342.80
2017-10-15T20:21:25.415Z,101347.02
2017-10-15T20:24:00.135Z,101344.57
2017-10-15T20:26:38.364Z,101342.53
2017-10-15T20:29:12.985Z,101348.63
2017-10-15T20:31:49.254Z,101340.28
2017-10-15T20:34:24.509Z,101341.74
2017-10-15T20:36:59.894Z,101340.91
2017-10-15T20:39:35.303Z,101351.78
2017-10-15T20:42:10.894Z,101356.14
2017-10-15T20:44:46.337Z,101361.34
2017-10-15T20:47:21.198Z,101361.02
2017-10-15T20:49:56.349Z,101355.09
2017-10-15T20:52:31.783Z,101354.34
2017-10-15T20:55:06.442Z,101360.73
2017-10-15T20:57:42.790Z,101360.31
2017-10-15T21:00:19.131Z,101359.67
2017-10-15T21:02:55.464Z,101366.56
2017-10-15T21:05:30.070Z,101360.98
2017-10-15T21:08:05.645Z,101358.81
2017-10-15T21:10:40.295Z,101350.62
2017-10-15T21:13:15.817Z,101350.02
2017-10-15T21:15:51.189Z,101344.47
2017-10-15T21:18:25.762Z,101340.09
2017-10-15T21:21:01.320Z,101337.77
2017-10-15T21:23:37.709Z,101339.44
2017-10-15T21:26:13.207Z,101338.37
2017-10-15T21:28:48.787Z,101336.53
2017-10-15T21:31:24.172Z,101335.59
2017-10-15T21:33:59.684Z,101333.31
2017-10-15T21:36:35.103Z,101332.45
2017-10-15T21:39:10.628Z,101340.98
2017-10-15T21:41:46.059Z,101335.95
2017-10-15T21:44:20.804Z,101334.20
2017-10-15T21:46:56.099Z,101342.33
2017-10-15T21:49:32.448Z,101345.93
2017-10-15T21:52:08.086Z,101349.81
2017-10-15T21:54:44.251Z,101350.25
2017-10-15T21:57:20.853Z,101357.98
2017-10-15T21:59:57.757Z,101365.80
2017-10-15T22:02:24.493Z,101356.46
2017-10-15T22:04:59.141Z,101360.84
2017-10-15T22:07:34.113Z,101355.22
2017-10-15T22:10:09.098Z,101359.03
2017-10-15T22:12:43.583Z,101351.73
2017-10-15T22:15:18.565Z,101353.44
2017-10-15T22:17:53.462Z,101343.05
2017-10-15T22:23:44.800Z,101345.78
2017-10-15T22:26:20.398Z,101341.73
2017-10-15T22:28:55.788Z,101337.71
2017-10-15T22:31:32.214Z,101340.59
2017-10-15T22:34:06.890Z,101332.37
2017-10-15T22:36:42.467Z,101339.64
2017-10-15T22:39:17.217Z,101339.12
2017-10-15T22:41:51.824Z,101337.39
2017-10-15T22:44:26.330Z,101331.02
2017-10-15T22:47:02.002Z,101337.70
2017-10-15T22:49:37.449Z,101350.53
2017-10-15T22:52:12.209Z,101353.14
2017-10-15T22:54:47.667Z,101345.09
2017-10-15T22:57:22.134Z,101347.12
2017-10-15T22:59:57.791Z,101348.05
2017-10-15T23:02:34.902Z,101360.17
2017-10-15T23:05:09.832Z,101359.78
2017-10-15T23:07:48.247Z,101360.62
2017-10-15T23:10:23.395Z,101357.65
2017-10-15T23:12:59.853Z,101363.73
2017-10-15T23:15:35.145Z,101370.19
2017-10-15T23:18:12.371Z,101366.45
2017-10-15T23:20:47.526Z,101362.63
2017-10-15T23:23:22.536Z,101371.25
2017-10-15T23:25:57.802Z,101365.73
2017-10-15T23:28:34.576Z,101368.43
2017-10-15T23:31:11.270Z,101368.48
2017-10-15T23:33:47.601Z,101361.24
2017-10-15T23:36:22.314Z,101356.19
2017-10-15T23:38:59.213Z,101354.08
2017-10-15T23:41:33.920Z,101339.15
2017-10-15T23:44:08.663Z,101343.95
2017-10-15T23:46:43.283Z,101341.87
2017-10-15T23:49:19.487Z,101350.98
2017-10-15T23:51:54.010Z,101353.49
2017-10-15T23:54:30.427Z,101352.30
2017-10-15T23:57:05.074Z,101347.58
2017-10-15T23:59:42.732Z,101348.44
